sensor_id;sensor_type;location;lat;lon;timestamp;P1;durP1;ratioP1;P2;durP2;ratioP2
50122;SDS011;36021;48.670;6.184;2023-03-26T00:00:36;6.13;;;1.50;;
50122;SDS011;36021;48.670;6.184;2023-03-26T00:03:03;12.23;;;1.88;;
50122;SDS011;36021;48.670;6.184;2023-03-26T00:05:29;3.95;;;1.15;;
50122;SDS011;36021;48.670;6.184;2023-03-26T00:07:56;3.33;;;1.48;;
50122;SDS011;36021;48.670;6.184;2023-03-26T00:10:22;4.45;;;1.55;;
50122;SDS011;36021;48.670;6.184;2023-03-26T00:12:49;1.67;;;1.23;;
50122;SDS011;36021;48.670;6.184;2023-03-26T00:15:15;5.60;;;1.48;;
50122;SDS011;36021;48.670;6.184;2023-03-26T00:17:41;3.25;;;1.25;;
50122;SDS011;36021;48.670;6.184;2023-03-26T00:20:11;4.43;;;1.15;;
50122;SDS011;36021;48.670;6.184;2023-03-26T00:22:37;10.48;;;1.30;;
50122;SDS011;36021;48.670;6.184;2023-03-26T00:25:04;2.25;;;1.00;;
50122;SDS011;36021;48.670;6.184;2023-03-26T00:27:33;5.45;;;1.02;;
50122;SDS011;36021;48.670;6.184;2023-03-26T00:30:00;5.25;;;1.92;;
50122;SDS011;36021;48.670;6.184;2023-03-26T00:32:28;6.77;;;1.10;;
50122;SDS011;36021;48.670;6.184;2023-03-26T00:34:55;5.93;;;1.70;;
50122;SDS011;36021;48.670;6.184;2023-03-26T00:37:26;1.83;;;0.80;;
50122;SDS011;36021;48.670;6.184;2023-03-26T00:39:52;4.82;;;1.38;;
50122;SDS011;36021;48.670;6.184;2023-03-26T00:42:18;3.75;;;1.08;;
50122;SDS011;36021;48.670;6.184;2023-03-26T00:44:45;12.98;;;1.50;;
50122;SDS011;36021;48.670;6.184;2023-03-26T00:47:11;3.35;;;1.02;;
50122;SDS011;36021;48.670;6.184;2023-03-26T00:49:37;4.35;;;1.10;;
50122;SDS011;36021;48.670;6.184;2023-03-26T00:52:04;7.25;;;1.55;;
50122;SDS011;36021;48.670;6.184;2023-03-26T00:54:33;6.03;;;1.45;;
50122;SDS011;36021;48.670;6.184;2023-03-26T00:57:00;3.00;;;1.58;;
50122;SDS011;36021;48.670;6.184;2023-03-26T00:59:28;5.68;;;2.15;;
50122;SDS011;36021;48.670;6.184;2023-03-26T01:01:55;3.83;;;2.00;;
50122;SDS011;36021;48.670;6.184;2023-03-26T01:04:29;3.25;;;2.08;;
50122;SDS011;36021;48.670;6.184;2023-03-26T01:07:11;10.38;;;2.20;;
50122;SDS011;36021;48.670;6.184;2023-03-26T01:09:42;7.82;;;2.08;;
50122;SDS011;36021;48.670;6.184;2023-03-26T01:12:15;3.75;;;1.98;;
50122;SDS011;36021;48.670;6.184;2023-03-26T01:14:45;8.18;;;1.75;;
50122;SDS011;36021;48.670;6.184;2023-03-26T01:17:12;4.25;;;2.05;;
50122;SDS011;36021;48.670;6.184;2023-03-26T01:22:38;9.02;;;2.00;;
50122;SDS011;36021;48.670;6.184;2023-03-26T01:25:11;3.47;;;1.83;;
50122;SDS011;36021;48.670;6.184;2023-03-26T01:27:55;4.60;;;1.98;;
50122;SDS011;36021;48.670;6.184;2023-03-26T01:33:09;5.00;;;1.52;;
50122;SDS011;36021;48.670;6.184;2023-03-26T01:39:16;2.42;;;1.30;;
50122;SDS011;36021;48.670;6.184;2023-03-26T01:42:01;5.70;;;1.77;;
50122;SDS011;36021;48.670;6.184;2023-03-26T01:47:05;3.25;;;1.15;;
50122;SDS011;36021;48.670;6.184;2023-03-26T01:49:33;2.90;;;1.55;;
50122;SDS011;36021;48.670;6.184;2023-03-26T01:51:59;4.18;;;1.50;;
50122;SDS011;36021;48.670;6.184;2023-03-26T01:54:26;4.13;;;1.10;;
50122;SDS011;36021;48.670;6.184;2023-03-26T02:05:53;2.75;;;1.00;;
50122;SDS011;36021;48.670;6.184;2023-03-26T02:08:23;4.13;;;1.55;;
50122;SDS011;36021;48.670;6.184;2023-03-26T02:10:56;4.15;;;1.38;;
50122;SDS011;36021;48.670;6.184;2023-03-26T02:13:22;5.75;;;1.40;;
50122;SDS011;36021;48.670;6.184;2023-03-26T02:16:22;7.82;;;1.70;;
50122;SDS011;36021;48.670;6.184;2023-03-26T02:18:44;7.22;;;1.10;;
50122;SDS011;36021;48.670;6.184;2023-03-26T02:21:12;2.70;;;1.00;;
50122;SDS011;36021;48.670;6.184;2023-03-26T02:23:45;3.85;;;1.98;;
50122;SDS011;36021;48.670;6.184;2023-03-26T02:26:15;3.65;;;1.20;;
50122;SDS011;36021;48.670;6.184;2023-03-26T02:28:54;3.28;;;1.05;;
50122;SDS011;36021;48.670;6.184;2023-03-26T02:31:19;3.60;;;1.33;;
50122;SDS011;36021;48.670;6.184;2023-03-26T02:33:46;3.63;;;1.33;;
50122;SDS011;36021;48.670;6.184;2023-03-26T02:36:13;3.08;;;0.90;;
50122;SDS011;36021;48.670;6.184;2023-03-26T02:38:43;3.15;;;1.20;;
50122;SDS011;36021;48.670;6.184;2023-03-26T02:41:09;4.53;;;1.77;;
50122;SDS011;36021;48.670;6.184;2023-03-26T02:43:57;2.15;;;0.95;;
50122;SDS011;36021;48.670;6.184;2023-03-26T02:46:37;2.97;;;0.95;;
50122;SDS011;36021;48.670;6.184;2023-03-26T02:49:25;5.13;;;1.13;;
50122;SDS011;36021;48.670;6.184;2023-03-26T02:51:51;2.85;;;1.17;;
50122;SDS011;36021;48.670;6.184;2023-03-26T02:54:24;6.47;;;1.10;;
50122;SDS011;36021;48.670;6.184;2023-03-26T02:56:55;4.03;;;1.42;;
50122;SDS011;36021;48.670;6.184;2023-03-26T02:59:41;4.97;;;1.10;;
50122;SDS011;36021;48.670;6.184;2023-03-26T03:02:36;3.53;;;1.10;;
50122;SDS011;36021;48.670;6.184;2023-03-26T03:05:19;4.82;;;1.63;;
50122;SDS011;36021;48.670;6.184;2023-03-26T03:07:51;3.97;;;1.45;;
50122;SDS011;36021;48.670;6.184;2023-03-26T03:10:26;3.83;;;1.15;;
50122;SDS011;36021;48.670;6.184;2023-03-26T03:13:03;3.28;;;1.02;;
50122;SDS011;36021;48.670;6.184;2023-03-26T03:15:32;6.93;;;1.05;;
50122;SDS011;36021;48.670;6.184;2023-03-26T03:17:59;4.68;;;1.75;;
50122;SDS011;36021;48.670;6.184;2023-03-26T03:20:28;3.92;;;1.00;;
50122;SDS011;36021;48.670;6.184;2023-03-26T03:22:54;6.50;;;1.70;;
50122;SDS011;36021;48.670;6.184;2023-03-26T03:25:20;8.18;;;1.50;;
50122;SDS011;36021;48.670;6.184;2023-03-26T03:27:46;3.95;;;0.80;;
50122;SDS011;36021;48.670;6.184;2023-03-26T03:30:13;5.60;;;0.88;;
50122;SDS011;36021;48.670;6.184;2023-03-26T03:32:44;4.15;;;1.75;;
50122;SDS011;36021;48.670;6.184;2023-03-26T03:35:12;1.92;;;1.15;;
50122;SDS011;36021;48.670;6.184;2023-03-26T03:37:41;5.30;;;1.15;;
50122;SDS011;36021;48.670;6.184;2023-03-26T03:40:10;2.92;;;0.80;;
50122;SDS011;36021;48.670;6.184;2023-03-26T03:42:37;6.20;;;1.00;;
50122;SDS011;36021;48.670;6.184;2023-03-26T03:45:05;5.07;;;1.20;;
50122;SDS011;36021;48.670;6.184;2023-03-26T03:47:50;12.88;;;1.10;;
50122;SDS011;36021;48.670;6.184;2023-03-26T03:50:22;5.22;;;1.35;;
50122;SDS011;36021;48.670;6.184;2023-03-26T03:53:03;2.25;;;1.10;;
50122;SDS011;36021;48.670;6.184;2023-03-26T03:55:31;4.40;;;1.10;;
50122;SDS011;36021;48.670;6.184;2023-03-26T03:57:58;5.38;;;1.23;;
50122;SDS011;36021;48.670;6.184;2023-03-26T04:00:25;1.30;;;0.90;;
50122;SDS011;36021;48.670;6.184;2023-03-26T04:03:10;3.33;;;1.17;;
50122;SDS011;36021;48.670;6.184;2023-03-26T04:05:38;2.10;;;1.08;;
50122;SDS011;36021;48.670;6.184;2023-03-26T04:08:05;5.47;;;0.98;;
50122;SDS011;36021;48.670;6.184;2023-03-26T04:13:36;6.53;;;2.25;;
50122;SDS011;36021;48.670;6.184;2023-03-26T04:16:15;4.30;;;1.13;;
50122;SDS011;36021;48.670;6.184;2023-03-26T04:18:42;3.17;;;0.80;;
50122;SDS011;36021;48.670;6.184;2023-03-26T04:21:13;4.15;;;1.10;;
50122;SDS011;36021;48.670;6.184;2023-03-26T04:23:41;0.70;;;0.50;;
50122;SDS011;36021;48.670;6.184;2023-03-26T04:26:32;1.00;;;0.88;;
50122;SDS011;36021;48.670;6.184;2023-03-26T04:29:04;2.10;;;1.30;;
50122;SDS011;36021;48.670;6.184;2023-03-26T04:31:32;7.00;;;0.95;;
50122;SDS011;36021;48.670;6.184;2023-03-26T04:34:02;6.65;;;1.30;;
50122;SDS011;36021;48.670;6.184;2023-03-26T04:36:37;5.80;;;1.38;;
50122;SDS011;36021;48.670;6.184;2023-03-26T04:39:08;4.32;;;0.98;;
50122;SDS011;36021;48.670;6.184;2023-03-26T04:42:01;2.78;;;1.42;;
50122;SDS011;36021;48.670;6.184;2023-03-26T04:44:36;1.23;;;0.70;;
50122;SDS011;36021;48.670;6.184;2023-03-26T04:47:07;5.97;;;1.15;;
50122;SDS011;36021;48.670;6.184;2023-03-26T04:49:43;1.00;;;0.70;;
50122;SDS011;36021;48.670;6.184;2023-03-26T04:52:12;4.85;;;1.10;;
50122;SDS011;36021;48.670;6.184;2023-03-26T04:58:45;2.00;;;1.25;;
50122;SDS011;36021;48.670;6.184;2023-03-26T05:01:12;2.37;;;0.97;;
50122;SDS011;36021;48.670;6.184;2023-03-26T05:03:43;2.58;;;0.90;;
50122;SDS011;36021;48.670;6.184;2023-03-26T05:06:11;8.05;;;2.53;;
50122;SDS011;36021;48.670;6.184;2023-03-26T05:08:38;3.53;;;1.05;;
50122;SDS011;36021;48.670;6.184;2023-03-26T05:11:04;2.42;;;1.30;;
50122;SDS011;36021;48.670;6.184;2023-03-26T05:13:35;2.17;;;1.10;;
50122;SDS011;36021;48.670;6.184;2023-03-26T05:16:06;5.93;;;1.77;;
50122;SDS011;36021;48.670;6.184;2023-03-26T05:18:38;5.47;;;1.45;;
50122;SDS011;36021;48.670;6.184;2023-03-26T05:21:04;3.65;;;1.65;;
50122;SDS011;36021;48.670;6.184;2023-03-26T05:23:31;8.02;;;2.38;;
50122;SDS011;36021;48.670;6.184;2023-03-26T05:26:26;4.40;;;1.55;;
50122;SDS011;36021;48.670;6.184;2023-03-26T05:28:53;7.20;;;1.25;;
50122;SDS011;36021;48.670;6.184;2023-03-26T05:31:24;1.13;;;1.00;;
50122;SDS011;36021;48.670;6.184;2023-03-26T05:33:56;2.05;;;1.15;;
50122;SDS011;36021;48.670;6.184;2023-03-26T05:36:24;3.38;;;1.15;;
50122;SDS011;36021;48.670;6.184;2023-03-26T05:39:03;2.70;;;1.00;;
50122;SDS011;36021;48.670;6.184;2023-03-26T05:41:48;5.07;;;1.58;;
50122;SDS011;36021;48.670;6.184;2023-03-26T05:44:18;3.90;;;1.25;;
50122;SDS011;36021;48.670;6.184;2023-03-26T05:46:44;6.78;;;1.33;;
50122;SDS011;36021;48.670;6.184;2023-03-26T05:49:17;2.63;;;1.45;;
50122;SDS011;36021;48.670;6.184;2023-03-26T05:51:43;1.67;;;1.20;;
50122;SDS011;36021;48.670;6.184;2023-03-26T05:54:34;7.95;;;1.60;;
50122;SDS011;36021;48.670;6.184;2023-03-26T05:57:22;5.28;;;1.73;;
50122;SDS011;36021;48.670;6.184;2023-03-26T06:00:07;5.05;;;1.73;;
50122;SDS011;36021;48.670;6.184;2023-03-26T06:02:44;5.35;;;1.67;;
50122;SDS011;36021;48.670;6.184;2023-03-26T06:05:33;3.28;;;1.77;;
50122;SDS011;36021;48.670;6.184;2023-03-26T06:08:08;6.70;;;1.52;;
50122;SDS011;36021;48.670;6.184;2023-03-26T06:10:37;3.25;;;1.90;;
50122;SDS011;36021;48.670;6.184;2023-03-26T06:13:04;3.30;;;1.38;;
50122;SDS011;36021;48.670;6.184;2023-03-26T06:15:30;3.15;;;1.90;;
50122;SDS011;36021;48.670;6.184;2023-03-26T06:18:10;7.60;;;1.63;;
50122;SDS011;36021;48.670;6.184;2023-03-26T06:20:57;4.28;;;2.13;;
50122;SDS011;36021;48.670;6.184;2023-03-26T06:23:37;5.35;;;1.38;;
50122;SDS011;36021;48.670;6.184;2023-03-26T06:26:13;3.75;;;1.60;;
50122;SDS011;36021;48.670;6.184;2023-03-26T06:28:47;4.75;;;1.30;;
50122;SDS011;36021;48.670;6.184;2023-03-26T06:31:40;6.63;;;1.50;;
50122;SDS011;36021;48.670;6.184;2023-03-26T06:34:16;4.53;;;1.17;;
50122;SDS011;36021;48.670;6.184;2023-03-26T06:36:42;6.63;;;1.00;;
50122;SDS011;36021;48.670;6.184;2023-03-26T06:39:08;0.85;;;0.73;;
50122;SDS011;36021;48.670;6.184;2023-03-26T06:41:39;2.47;;;0.90;;
50122;SDS011;36021;48.670;6.184;2023-03-26T06:44:25;1.73;;;1.10;;
50122;SDS011;36021;48.670;6.184;2023-03-26T06:47:14;3.90;;;0.95;;
50122;SDS011;36021;48.670;6.184;2023-03-26T06:50:06;1.75;;;0.77;;
50122;SDS011;36021;48.670;6.184;2023-03-26T06:52:55;1.15;;;1.05;;
50122;SDS011;36021;48.670;6.184;2023-03-26T06:55:42;2.30;;;1.38;;
50122;SDS011;36021;48.670;6.184;2023-03-26T06:58:24;4.43;;;1.30;;
50122;SDS011;36021;48.670;6.184;2023-03-26T07:00:53;3.92;;;1.00;;
50122;SDS011;36021;48.670;6.184;2023-03-26T07:03:37;3.95;;;1.00;;
50122;SDS011;36021;48.670;6.184;2023-03-26T07:06:21;0.77;;;0.70;;
50122;SDS011;36021;48.670;6.184;2023-03-26T07:09:12;3.35;;;1.15;;
50122;SDS011;36021;48.670;6.184;2023-03-26T07:11:57;0.40;;;0.40;;
50122;SDS011;36021;48.670;6.184;2023-03-26T07:14:42;1.55;;;0.88;;
50122;SDS011;36021;48.670;6.184;2023-03-26T07:17:21;2.22;;;1.25;;
50122;SDS011;36021;48.670;6.184;2023-03-26T07:19:54;1.75;;;0.77;;
50122;SDS011;36021;48.670;6.184;2023-03-26T07:22:23;3.45;;;0.68;;
50122;SDS011;36021;48.670;6.184;2023-03-26T07:25:05;3.83;;;0.75;;
50122;SDS011;36021;48.670;6.184;2023-03-26T07:27:51;6.45;;;1.00;;
50122;SDS011;36021;48.670;6.184;2023-03-26T07:36:34;3.15;;;0.80;;
50122;SDS011;36021;48.670;6.184;2023-03-26T07:45:21;2.90;;;0.70;;
50122;SDS011;36021;48.670;6.184;2023-03-26T07:48:23;5.30;;;1.08;;
50122;SDS011;36021;48.670;6.184;2023-03-26T07:51:13;7.53;;;0.98;;
50122;SDS011;36021;48.670;6.184;2023-03-26T07:54:07;2.00;;;1.13;;
50122;SDS011;36021;48.670;6.184;2023-03-26T07:56:45;0.40;;;0.40;;
50122;SDS011;36021;48.670;6.184;2023-03-26T08:06:07;4.80;;;0.93;;
50122;SDS011;36021;48.670;6.184;2023-03-26T08:08:56;1.45;;;0.65;;
50122;SDS011;36021;48.670;6.184;2023-03-26T08:14:37;3.05;;;1.13;;
50122;SDS011;36021;48.670;6.184;2023-03-26T08:17:32;1.35;;;0.38;;
50122;SDS011;36021;48.670;6.184;2023-03-26T08:20:25;2.33;;;0.85;;
50122;SDS011;36021;48.670;6.184;2023-03-26T08:28:26;2.83;;;0.43;;
50122;SDS011;36021;48.670;6.184;2023-03-26T08:30:57;1.98;;;0.68;;
50122;SDS011;36021;48.670;6.184;2023-03-26T08:33:27;1.77;;;0.45;;
50122;SDS011;36021;48.670;6.184;2023-03-26T08:35:53;1.00;;;0.50;;
50122;SDS011;36021;48.670;6.184;2023-03-26T08:38:19;1.45;;;0.47;;
50122;SDS011;36021;48.670;6.184;2023-03-26T09:03:36;1.70;;;0.43;;
50122;SDS011;36021;48.670;6.184;2023-03-26T09:12:28;0.35;;;0.30;;
50122;SDS011;36021;48.670;6.184;2023-03-26T09:39:59;4.18;;;1.05;;
50122;SDS011;36021;48.670;6.184;2023-03-26T09:42:44;4.13;;;0.93;;
50122;SDS011;36021;48.670;6.184;2023-03-26T09:50:40;2.03;;;0.40;;
50122;SDS011;36021;48.670;6.184;2023-03-26T09:53:18;5.07;;;1.00;;
50122;SDS011;36021;48.670;6.184;2023-03-26T09:58:32;2.75;;;0.95;;
50122;SDS011;36021;48.670;6.184;2023-03-26T10:01:16;4.63;;;0.60;;
50122;SDS011;36021;48.670;6.184;2023-03-26T10:18:46;0.93;;;0.60;;
50122;SDS011;36021;48.670;6.184;2023-03-26T10:27:05;0.45;;;0.43;;
50122;SDS011;36021;48.670;6.184;2023-03-26T10:35:18;0.50;;;0.50;;
50122;SDS011;36021;48.670;6.184;2023-03-26T10:40:40;0.65;;;0.50;;
50122;SDS011;36021;48.670;6.184;2023-03-26T10:46:20;2.38;;;0.77;;
50122;SDS011;36021;48.670;6.184;2023-03-26T10:52:01;2.05;;;0.93;;
50122;SDS011;36021;48.670;6.184;2023-03-26T10:54:41;3.38;;;1.10;;
50122;SDS011;36021;48.670;6.184;2023-03-26T10:59:51;0.35;;;0.30;;
50122;SDS011;36021;48.670;6.184;2023-03-26T11:02:26;1.77;;;0.70;;
50122;SDS011;36021;48.670;6.184;2023-03-26T11:07:36;3.60;;;1.40;;
50122;SDS011;36021;48.670;6.184;2023-03-26T11:10:53;0.77;;;0.60;;
50122;SDS011;36021;48.670;6.184;2023-03-26T11:15:59;1.52;;;1.10;;
50122;SDS011;36021;48.670;6.184;2023-03-26T11:26:36;5.03;;;1.17;;
50122;SDS011;36021;48.670;6.184;2023-03-26T11:34:38;4.03;;;0.73;;
50122;SDS011;36021;48.670;6.184;2023-03-26T11:37:10;1.52;;;0.45;;
50122;SDS011;36021;48.670;6.184;2023-03-26T11:39:52;5.22;;;0.95;;
50122;SDS011;36021;48.670;6.184;2023-03-26T11:42:23;3.53;;;0.90;;
50122;SDS011;36021;48.670;6.184;2023-03-26T11:45:03;0.47;;;0.47;;
50122;SDS011;36021;48.670;6.184;2023-03-26T11:47:49;3.65;;;0.63;;
50122;SDS011;36021;48.670;6.184;2023-03-26T11:50:23;2.15;;;0.65;;
50122;SDS011;36021;48.670;6.184;2023-03-26T11:52:53;0.45;;;0.45;;
50122;SDS011;36021;48.670;6.184;2023-03-26T11:55:24;1.92;;;1.00;;
50122;SDS011;36021;48.670;6.184;2023-03-26T11:57:54;1.30;;;0.45;;
50122;SDS011;36021;48.670;6.184;2023-03-26T12:00:23;2.75;;;0.60;;
50122;SDS011;36021;48.670;6.184;2023-03-26T12:02:54;1.23;;;0.82;;
50122;SDS011;36021;48.670;6.184;2023-03-26T12:05:22;4.88;;;0.82;;
50122;SDS011;36021;48.670;6.184;2023-03-26T12:10:34;0.52;;;0.52;;
50122;SDS011;36021;48.670;6.184;2023-03-26T12:13:49;0.43;;;0.32;;
50122;SDS011;36021;48.670;6.184;2023-03-26T12:16:12;0.20;;;0.20;;
50122;SDS011;36021;48.670;6.184;2023-03-26T12:18:41;0.45;;;0.25;;
50122;SDS011;36021;48.670;6.184;2023-03-26T12:21:13;0.30;;;0.30;;
50122;SDS011;36021;48.670;6.184;2023-03-26T12:26:29;0.88;;;0.50;;
50122;SDS011;36021;48.670;6.184;2023-03-26T12:29:08;0.30;;;0.30;;
50122;SDS011;36021;48.670;6.184;2023-03-26T12:34:33;0.55;;;0.40;;
50122;SDS011;36021;48.670;6.184;2023-03-26T12:37:01;1.05;;;0.40;;
50122;SDS011;36021;48.670;6.184;2023-03-26T12:44:35;0.70;;;0.57;;
50122;SDS011;36021;48.670;6.184;2023-03-26T12:47:21;4.40;;;0.95;;
50122;SDS011;36021;48.670;6.184;2023-03-26T12:49:51;0.47;;;0.35;;
50122;SDS011;36021;48.670;6.184;2023-03-26T13:00:41;0.35;;;0.32;;
50122;SDS011;36021;48.670;6.184;2023-03-26T13:06:01;0.85;;;0.50;;
50122;SDS011;36021;48.670;6.184;2023-03-26T13:16:58;0.70;;;0.30;;
50122;SDS011;36021;48.670;6.184;2023-03-26T13:19:28;0.63;;;0.45;;
50122;SDS011;36021;48.670;6.184;2023-03-26T13:22:07;0.20;;;0.20;;
50122;SDS011;36021;48.670;6.184;2023-03-26T13:27:27;7.25;;;0.40;;
50122;SDS011;36021;48.670;6.184;2023-03-26T13:30:24;0.38;;;0.20;;
50122;SDS011;36021;48.670;6.184;2023-03-26T13:33:03;0.25;;;0.25;;
50122;SDS011;36021;48.670;6.184;2023-03-26T13:35:52;1.30;;;0.40;;
50122;SDS011;36021;48.670;6.184;2023-03-26T13:44:16;0.30;;;0.20;;
50122;SDS011;36021;48.670;6.184;2023-03-26T13:46:54;0.30;;;0.30;;
50122;SDS011;36021;48.670;6.184;2023-03-26T13:49:32;0.40;;;0.20;;
50122;SDS011;36021;48.670;6.184;2023-03-26T13:57:51;0.10;;;0.10;;
50122;SDS011;36021;48.670;6.184;2023-03-26T14:03:52;0.15;;;0.15;;
50122;SDS011;36021;48.670;6.184;2023-03-26T14:17:36;0.10;;;0.10;;
50122;SDS011;36021;48.670;6.184;2023-03-26T14:20:07;0.77;;;0.28;;
50122;SDS011;36021;48.670;6.184;2023-03-26T14:47:22;0.20;;;0.20;;
50122;SDS011;36021;48.670;6.184;2023-03-26T14:52:51;0.40;;;0.30;;
50122;SDS011;36021;48.670;6.184;2023-03-26T14:55:26;0.30;;;0.30;;
50122;SDS011;36021;48.670;6.184;2023-03-26T15:20:33;0.98;;;0.43;;
50122;SDS011;36021;48.670;6.184;2023-03-26T15:43:10;0.88;;;0.32;;
50122;SDS011;36021;48.670;6.184;2023-03-26T15:56:54;0.22;;;0.22;;
50122;SDS011;36021;48.670;6.184;2023-03-26T16:13:21;0.52;;;0.30;;
50122;SDS011;36021;48.670;6.184;2023-03-26T16:18:33;6.22;;;0.63;;
50122;SDS011;36021;48.670;6.184;2023-03-26T16:36:41;0.25;;;0.25;;
50122;SDS011;36021;48.670;6.184;2023-03-26T16:44:12;0.38;;;0.38;;
50122;SDS011;36021;48.670;6.184;2023-03-26T17:00:50;0.47;;;0.30;;
50122;SDS011;36021;48.670;6.184;2023-03-26T17:08:36;0.40;;;0.40;;
50122;SDS011;36021;48.670;6.184;2023-03-26T17:16:39;0.32;;;0.32;;
50122;SDS011;36021;48.670;6.184;2023-03-26T17:19:27;0.20;;;0.20;;
50122;SDS011;36021;48.670;6.184;2023-03-26T17:25:27;1.60;;;0.63;;
50122;SDS011;36021;48.670;6.184;2023-03-26T17:33:40;3.22;;;0.40;;
50122;SDS011;36021;48.670;6.184;2023-03-26T17:36:20;0.75;;;0.40;;
50122;SDS011;36021;48.670;6.184;2023-03-26T17:38:56;0.52;;;0.40;;
50122;SDS011;36021;48.670;6.184;2023-03-26T17:44:39;4.95;;;0.50;;
50122;SDS011;36021;48.670;6.184;2023-03-26T17:47:13;0.85;;;0.30;;
50122;SDS011;36021;48.670;6.184;2023-03-26T17:49:44;0.70;;;0.60;;
50122;SDS011;36021;48.670;6.184;2023-03-26T17:52:16;0.28;;;0.25;;
50122;SDS011;36021;48.670;6.184;2023-03-26T17:54:48;2.97;;;0.65;;
50122;SDS011;36021;48.670;6.184;2023-03-26T17:59:58;0.40;;;0.40;;
50122;SDS011;36021;48.670;6.184;2023-03-26T18:02:33;1.60;;;0.63;;
50122;SDS011;36021;48.670;6.184;2023-03-26T18:05:11;0.47;;;0.45;;
50122;SDS011;36021;48.670;6.184;2023-03-26T18:16:17;2.83;;;0.47;;
50122;SDS011;36021;48.670;6.184;2023-03-26T18:18:51;1.52;;;0.60;;
50122;SDS011;36021;48.670;6.184;2023-03-26T18:21:33;2.60;;;0.80;;
50122;SDS011;36021;48.670;6.184;2023-03-26T18:24:02;1.17;;;0.50;;
50122;SDS011;36021;48.670;6.184;2023-03-26T18:26:37;0.80;;;0.73;;
50122;SDS011;36021;48.670;6.184;2023-03-26T18:31:47;0.47;;;0.45;;
50122;SDS011;36021;48.670;6.184;2023-03-26T18:34:17;2.38;;;0.60;;
50122;SDS011;36021;48.670;6.184;2023-03-26T18:39:58;0.50;;;0.50;;
50122;SDS011;36021;48.670;6.184;2023-03-26T18:42:27;0.35;;;0.35;;
50122;SDS011;36021;48.670;6.184;2023-03-26T18:44:56;0.30;;;0.30;;
50122;SDS011;36021;48.670;6.184;2023-03-26T18:47:22;4.88;;;0.80;;
50122;SDS011;36021;48.670;6.184;2023-03-26T18:49:50;0.68;;;0.65;;
50122;SDS011;36021;48.670;6.184;2023-03-26T18:52:19;2.33;;;0.77;;
50122;SDS011;36021;48.670;6.184;2023-03-26T18:54:47;1.23;;;0.70;;
50122;SDS011;36021;48.670;6.184;2023-03-26T18:57:20;2.90;;;0.50;;
50122;SDS011;36021;48.670;6.184;2023-03-26T18:59:50;1.23;;;0.57;;
50122;SDS011;36021;48.670;6.184;2023-03-26T19:02:18;0.70;;;0.70;;
50122;SDS011;36021;48.670;6.184;2023-03-26T19:04:46;1.40;;;0.65;;
50122;SDS011;36021;48.670;6.184;2023-03-26T19:07:15;5.47;;;0.63;;
50122;SDS011;36021;48.670;6.184;2023-03-26T19:09:46;3.22;;;0.47;;
50122;SDS011;36021;48.670;6.184;2023-03-26T19:12:23;1.27;;;0.75;;
50122;SDS011;36021;48.670;6.184;2023-03-26T19:14:57;3.80;;;0.57;;
50122;SDS011;36021;48.670;6.184;2023-03-26T19:17:29;1.75;;;0.65;;
50122;SDS011;36021;48.670;6.184;2023-03-26T19:19:59;1.90;;;0.50;;
50122;SDS011;36021;48.670;6.184;2023-03-26T19:22:25;0.82;;;0.52;;
50122;SDS011;36021;48.670;6.184;2023-03-26T19:24:55;0.98;;;0.70;;
50122;SDS011;36021;48.670;6.184;2023-03-26T19:27:24;1.00;;;0.43;;
50122;SDS011;36021;48.670;6.184;2023-03-26T19:29:52;0.30;;;0.30;;
50122;SDS011;36021;48.670;6.184;2023-03-26T19:32:19;0.77;;;0.70;;
50122;SDS011;36021;48.670;6.184;2023-03-26T19:34:51;0.65;;;0.30;;
50122;SDS011;36021;48.670;6.184;2023-03-26T19:37:21;0.60;;;0.50;;
50122;SDS011;36021;48.670;6.184;2023-03-26T19:39:53;0.75;;;0.57;;
50122;SDS011;36021;48.670;6.184;2023-03-26T19:42:26;0.60;;;0.60;;
50122;SDS011;36021;48.670;6.184;2023-03-26T19:44:56;0.35;;;0.35;;
50122;SDS011;36021;48.670;6.184;2023-03-26T19:47:56;0.45;;;0.45;;
50122;SDS011;36021;48.670;6.184;2023-03-26T19:50:24;2.83;;;0.57;;
50122;SDS011;36021;48.670;6.184;2023-03-26T19:55:37;1.48;;;0.52;;
50122;SDS011;36021;48.670;6.184;2023-03-26T19:58:08;1.23;;;0.40;;
50122;SDS011;36021;48.670;6.184;2023-03-26T20:03:02;1.58;;;0.68;;
50122;SDS011;36021;48.670;6.184;2023-03-26T20:05:29;2.08;;;0.52;;
50122;SDS011;36021;48.670;6.184;2023-03-26T20:07:58;0.68;;;0.52;;
50122;SDS011;36021;48.670;6.184;2023-03-26T20:10:27;0.45;;;0.45;;
50122;SDS011;36021;48.670;6.184;2023-03-26T20:12:53;1.25;;;0.40;;
50122;SDS011;36021;48.670;6.184;2023-03-26T20:15:20;0.60;;;0.40;;
50122;SDS011;36021;48.670;6.184;2023-03-26T20:17:48;1.40;;;0.50;;
50122;SDS011;36021;48.670;6.184;2023-03-26T20:22:44;0.40;;;0.40;;
50122;SDS011;36021;48.670;6.184;2023-03-26T20:25:16;0.32;;;0.32;;
50122;SDS011;36021;48.670;6.184;2023-03-26T20:27:44;0.43;;;0.43;;
50122;SDS011;36021;48.670;6.184;2023-03-26T20:30:13;0.65;;;0.55;;
50122;SDS011;36021;48.670;6.184;2023-03-26T20:32:40;5.68;;;0.60;;
50122;SDS011;36021;48.670;6.184;2023-03-26T20:35:25;1.35;;;0.60;;
50122;SDS011;36021;48.670;6.184;2023-03-26T20:37:51;1.67;;;0.32;;
50122;SDS011;36021;48.670;6.184;2023-03-26T20:40:18;0.80;;;0.50;;
50122;SDS011;36021;48.670;6.184;2023-03-26T20:42:45;0.33;;;0.33;;
50122;SDS011;36021;48.670;6.184;2023-03-26T20:47:43;1.65;;;0.47;;
50122;SDS011;36021;48.670;6.184;2023-03-26T20:50:11;1.00;;;0.47;;
50122;SDS011;36021;48.670;6.184;2023-03-26T20:52:38;0.30;;;0.30;;
50122;SDS011;36021;48.670;6.184;2023-03-26T20:55:06;3.05;;;0.32;;
50122;SDS011;36021;48.670;6.184;2023-03-26T20:57:36;0.93;;;0.45;;
50122;SDS011;36021;48.670;6.184;2023-03-26T21:00:04;1.77;;;0.47;;
50122;SDS011;36021;48.670;6.184;2023-03-26T21:03:00;0.73;;;0.57;;
50122;SDS011;36021;48.670;6.184;2023-03-26T21:05:26;1.20;;;0.57;;
50122;SDS011;36021;48.670;6.184;2023-03-26T21:07:54;3.50;;;0.68;;
50122;SDS011;36021;48.670;6.184;2023-03-26T21:10:22;2.45;;;0.70;;
50122;SDS011;36021;48.670;6.184;2023-03-26T21:15:34;1.17;;;0.80;;
50122;SDS011;36021;48.670;6.184;2023-03-26T21:18:02;0.73;;;0.57;;
50122;SDS011;36021;48.670;6.184;2023-03-26T21:20:29;0.70;;;0.50;;
50122;SDS011;36021;48.670;6.184;2023-03-26T21:30:33;1.42;;;0.65;;
50122;SDS011;36021;48.670;6.184;2023-03-26T21:32:59;1.55;;;0.80;;
50122;SDS011;36021;48.670;6.184;2023-03-26T21:35:25;2.47;;;0.63;;
50122;SDS011;36021;48.670;6.184;2023-03-26T21:37:51;0.82;;;0.70;;
50122;SDS011;36021;48.670;6.184;2023-03-26T21:40:19;1.88;;;0.52;;
50122;SDS011;36021;48.670;6.184;2023-03-26T21:42:46;0.88;;;0.80;;
50122;SDS011;36021;48.670;6.184;2023-03-26T21:45:14;0.55;;;0.45;;
50122;SDS011;36021;48.670;6.184;2023-03-26T21:47:41;1.40;;;1.00;;
50122;SDS011;36021;48.670;6.184;2023-03-26T21:50:11;1.35;;;0.93;;
50122;SDS011;36021;48.670;6.184;2023-03-26T21:52:39;2.50;;;0.63;;
50122;SDS011;36021;48.670;6.184;2023-03-26T21:55:16;1.30;;;0.82;;
50122;SDS011;36021;48.670;6.184;2023-03-26T22:00:36;2.13;;;0.80;;
50122;SDS011;36021;48.670;6.184;2023-03-26T22:06:50;1.00;;;0.68;;
50122;SDS011;36021;48.670;6.184;2023-03-26T22:09:01;1.02;;;0.95;;
50122;SDS011;36021;48.670;6.184;2023-03-26T22:11:28;1.40;;;0.88;;
50122;SDS011;36021;48.670;6.184;2023-03-26T22:13:54;1.35;;;0.85;;
50122;SDS011;36021;48.670;6.184;2023-03-26T22:16:22;0.85;;;0.75;;
50122;SDS011;36021;48.670;6.184;2023-03-26T22:18:51;1.73;;;0.88;;
50122;SDS011;36021;48.670;6.184;2023-03-26T22:21:18;2.25;;;0.80;;
50122;SDS011;36021;48.670;6.184;2023-03-26T22:23:44;2.13;;;0.80;;
50122;SDS011;36021;48.670;6.184;2023-03-26T22:26:17;1.27;;;0.80;;
50122;SDS011;36021;48.670;6.184;2023-03-26T22:28:46;1.80;;;0.55;;
50122;SDS011;36021;48.670;6.184;2023-03-26T22:31:12;3.95;;;0.65;;
50122;SDS011;36021;48.670;6.184;2023-03-26T22:33:38;0.80;;;0.60;;
50122;SDS011;36021;48.670;6.184;2023-03-26T22:36:07;2.25;;;1.05;;
50122;SDS011;36021;48.670;6.184;2023-03-26T22:38:34;2.83;;;1.15;;